Time;durP1;ratioP1;P1;durP2;ratioP2;P2;SDS_P1;SDS_P2;PMS_P1;PMS_P2;Temp;Humidity;BMP_temperature;BMP_pressure;BME280_temperature;BME280_humidity;BME280_pressure;Samples;Min_cycle;Max_cycle;Signal;HPM_P1;HPM_P2
2021/10/05 00:01:01;;;;;;;;;;;;;;;16.49;73.59;98313.99;1634273;87;21033;-84
2021/10/05 00:03:27;;;;;;;;;;;;;;;16.52;73.58;98311.91;1631245;87;25324;-88
2021/10/05 00:05:53;;;;;;;;;;;;;;;16.58;73.56;98303.36;1626710;87;20843;-88
2021/10/05 00:08:19;;;;;;;;;;;;;;;16.58;73.54;98302.05;1637511;87;20312;-87
2021/10/05 00:10:45;;;;;;;;;;;;;;;16.56;73.49;98299.23;1636210;87;20238;-83
2021/10/05 00:13:11;;;;;;;;;;;;;;;16.53;73.43;98290.28;1640591;87;26100;-84
2021/10/05 00:15:37;;;;;;;;;;;;;;;16.54;73.40;98289.28;1637747;87;24622;-88
2021/10/05 00:18:03;;;;;;;;;;;;;;;16.51;73.37;98289.11;1625112;87;20338;-85
2021/10/05 00:20:29;;;;;;;;;;;;;;;16.47;73.33;98280.31;1642573;87;24791;-84
2021/10/05 00:22:57;;;;;;;;;;;;;;;16.48;73.28;98279.30;1637302;87;22088;-88
2021/10/05 00:25:23;;;;;;;;;;;;;;;16.48;73.27;98274.02;1662693;85;26014;-88
2021/10/05 00:27:49;;;;;;;;;;;;;;;16.48;73.23;98273.53;1635058;87;24437;-88
2021/10/05 00:30:15;;;;;;;;;;;;;;;16.49;73.21;98273.05;1637455;87;20230;-83
2021/10/05 00:32:42;;;;;;;;;;;;;;;16.53;73.22;98272.59;1635073;86;20745;-86
2021/10/05 00:35:08;;;;;;;;;;;;;;;16.58;73.17;98271.66;1634789;87;22084;-87
2021/10/05 00:37:34;;;;;;;;;;;;;;;16.61;73.16;98271.41;1632065;87;26069;-86
2021/10/05 00:40:00;;;;;;;;;;;;;;;16.64;73.13;98267.14;1637777;87;20951;-84
2021/10/05 00:42:26;;;;;;;;;;;;;;;16.64;73.07;98264.49;1633890;85;20238;-88
2021/10/05 00:44:52;;;;;;;;;;;;;;;16.66;73.03;98256.42;1629593;87;20209;-83
2021/10/05 00:47:18;;;;;;;;;;;;;;;16.66;72.98;98257.75;1640825;87;21997;-84
2021/10/05 00:49:46;;;;;;;;;;;;;;;16.68;72.93;98247.87;1638115;87;26081;-87
2021/10/05 00:52:13;;;;;;;;;;;;;;;16.67;72.90;98252.81;1635267;87;24426;-84
2021/10/05 00:54:40;;;;;;;;;;;;;;;16.67;72.84;98251.48;1633104;87;20170;-87
2021/10/05 00:57:07;;;;;;;;;;;;;;;16.67;72.82;98251.48;1636559;87;24917;-84
2021/10/05 00:59:35;;;;;;;;;;;;;;;16.67;72.77;98243.08;1636286;87;22046;-88
2021/10/05 01:02:09;;;;;;;;;;;;;;;16.69;72.73;98230.52;1635236;87;26106;-88
2021/10/05 01:04:43;;;;;;;;;;;;;;;16.70;72.68;98232.67;1637282;87;24630;-85
2021/10/05 01:07:10;;;;;;;;;;;;;;;16.66;72.62;98234.80;1637173;87;20483;-84
2021/10/05 01:09:36;;;;;;;;;;;;;;;16.66;72.58;98233.97;1635803;87;24801;-88
2021/10/05 01:12:03;;;;;;;;;;;;;;;16.66;72.54;98237.93;1639287;85;22076;-83
2021/10/05 01:14:29;;;;;;;;;;;;;;;16.64;72.52;98235.43;1633437;87;26559;-87
2021/10/05 01:16:56;;;;;;;;;;;;;;;16.65;72.46;98232.30;1632740;87;20307;-85
2021/10/05 01:19:22;;;;;;;;;;;;;;;16.66;72.42;98228.20;1642425;87;20188;-88
2021/10/05 01:21:49;;;;;;;;;;;;;;;16.67;72.40;98230.34;1635449;85;25094;-86
2021/10/05 01:24:16;;;;;;;;;;;;;;;16.69;72.36;98230.52;1629942;87;21981;-85
2021/10/05 01:26:42;;;;;;;;;;;;;;;16.67;72.31;98229.86;1638520;87;26155;-84
2021/10/05 01:29:09;;;;;;;;;;;;;;;16.67;72.25;98225.90;1642609;87;24524;-88
2021/10/05 01:31:37;;;;;;;;;;;;;;;16.66;72.23;98226.88;1631208;87;20158;-85
2021/10/05 01:34:04;;;;;;;;;;;;;;;16.63;72.16;98227.19;1627921;85;24784;-84
2021/10/05 01:36:30;;;;;;;;;;;;;;;16.63;72.13;98221.91;1625092;87;22094;-83
2021/10/05 01:38:56;;;;;;;;;;;;;;;16.70;72.12;98220.78;1619440;87;26180;-87
2021/10/05 01:41:27;;;;;;;;;;;;;;;16.70;72.09;98215.02;1618880;87;24425;-87
2021/10/05 01:43:51;;;;;;;;;;;;;;;16.71;72.05;98214.52;1629170;86;20486;-86
2021/10/05 01:46:17;;;;;;;;;;;;;;;16.66;72.01;98212.34;1624473;87;24768;-84
2021/10/05 01:48:44;;;;;;;;;;;;;;;16.56;71.94;98214.69;1623927;87;22169;-84
2021/10/05 01:51:10;;;;;;;;;;;;;;;16.37;71.84;98209.52;1631622;87;26068;-86
2021/10/05 01:53:37;;;;;;;;;;;;;;;16.21;71.79;98207.53;1660388;85;24615;-84
2021/10/05 01:56:10;;;;;;;;;;;;;;;16.10;71.75;98213.00;1622161;87;20389;-84
2021/10/05 01:58:36;;;;;;;;;;;;;;;16.04;71.76;98209.14;1625254;87;24773;-84
2021/10/05 02:01:02;;;;;;;;;;;;;;;16.03;71.81;98208.83;1623961;87;20322;-84
2021/10/05 02:03:28;;;;;;;;;;;;;;;15.97;71.85;98209.41;1619777;87;21001;-84
2021/10/05 02:05:54;;;;;;;;;;;;;;;15.97;71.87;98213.37;1629809;87;24449;-83
2021/10/05 02:08:20;;;;;;;;;;;;;;;15.97;71.93;98208.58;1629813;87;20277;-86
2021/10/05 02:10:46;;;;;;;;;;;;;;;15.96;71.95;98202.46;1660715;85;20376;-86
2021/10/05 02:13:18;;;;;;;;;;;;;;;15.95;71.97;98198.64;1628050;87;20275;-88
2021/10/05 02:15:44;;;;;;;;;;;;;;;15.87;72.01;98190.16;1624136;87;26067;-84
2021/10/05 02:18:10;;;;;;;;;;;;;;;15.78;72.01;98191.84;1619951;87;20312;-84
2021/10/05 02:20:36;;;;;;;;;;;;;;;15.67;72.05;98189.39;1623255;87;20297;-88
2021/10/05 02:23:02;;;;;;;;;;;;;;;15.66;72.06;98188.20;1620254;87;20234;-88
2021/10/05 02:25:28;;;;;;;;;;;;;;;15.69;72.10;98186.13;1617163;87;20363;-86
2021/10/05 02:27:54;;;;;;;;;;;;;;;15.63;72.13;98187.19;1625953;87;21073;-88
2021/10/05 02:30:20;;;;;;;;;;;;;;;15.57;72.16;98185.13;1621720;87;24397;-84
2021/10/05 02:32:46;;;;;;;;;;;;;;;15.62;72.21;98185.52;1628215;87;20254;-85
2021/10/05 02:35:12;;;;;;;;;;;;;;;15.66;72.27;98181.13;1628883;86;24950;-84
2021/10/05 02:37:38;;;;;;;;;;;;;;;15.63;72.32;98188.02;1636773;86;20250;-83
2021/10/05 02:40:06;;;;;;;;;;;;;;;15.61;72.36;98186.00;1631870;86;26008;-83
2021/10/05 02:42:32;;;;;;;;;;;;;;;15.54;72.39;98182.79;1626993;86;26169;-83
2021/10/05 02:44:59;;;;;;;;;;;;;;;15.56;72.42;98180.81;1635973;86;20509;-88
2021/10/05 02:47:26;;;;;;;;;;;;;;;15.62;72.50;98171.02;1625695;86;25619;-88
2021/10/05 02:49:52;;;;;;;;;;;;;;;15.58;72.55;98172.28;1612959;86;22007;-83
2021/10/05 02:52:19;;;;;;;;;;;;;;;15.49;72.55;98168.17;1628923;86;21053;-88
2021/10/05 02:54:48;;;;;;;;;;;;;;;15.44;72.59;98171.73;1603803;86;24518;-85
2021/10/05 02:57:16;;;;;;;;;;;;;;;15.38;72.62;98164.91;1633600;86;20227;-88
2021/10/05 02:59:43;;;;;;;;;;;;;;;15.29;72.65;98171.02;1634006;86;24830;-85
2021/10/05 03:02:09;;;;;;;;;;;;;;;15.23;72.70;98171.10;1632556;86;22005;-84
2021/10/05 03:04:35;;;;;;;;;;;;;;;15.18;72.77;98169.87;1643167;86;26725;-84
2021/10/05 03:07:01;;;;;;;;;;;;;;;15.13;72.86;98168.14;1624760;86;24599;-86
2021/10/05 03:09:27;;;;;;;;;;;;;;;15.11;72.95;98162.20;1632232;86;20363;-84
2021/10/05 03:11:53;;;;;;;;;;;;;;;15.12;73.06;98159.41;1620527;86;24741;-86
2021/10/05 03:14:19;;;;;;;;;;;;;;;15.06;73.13;98152.89;1637973;85;20258;-85
2021/10/05 03:16:45;;;;;;;;;;;;;;;14.97;73.22;98148.48;1629006;86;26069;-84
2021/10/05 03:19:11;;;;;;;;;;;;;;;14.96;73.33;98148.62;1605238;87;20409;-86
2021/10/05 03:21:38;;;;;;;;;;;;;;;15.06;73.46;98150.74;1626731;86;20441;-84
2021/10/05 03:24:04;;;;;;;;;;;;;;;15.10;73.55;98146.88;1634975;86;24752;-86
2021/10/05 03:26:30;;;;;;;;;;;;;;;15.03;73.61;98147.09;1633270;86;22152;-86
2021/10/05 03:28:56;;;;;;;;;;;;;;;14.99;73.69;98140.45;1633553;86;21041;-86
2021/10/05 03:31:22;;;;;;;;;;;;;;;15.01;73.75;98139.80;1626536;86;20344;-84
2021/10/05 03:33:48;;;;;;;;;;;;;;;15.03;73.80;98137.86;1623409;86;20171;-86
2021/10/05 03:36:15;;;;;;;;;;;;;;;15.07;73.88;98137.91;1624317;87;25946;-85
2021/10/05 03:38:44;;;;;;;;;;;;;;;15.12;73.94;98134.84;1625101;87;22017;-85
2021/10/05 03:41:11;;;;;;;;;;;;;;;15.07;73.94;98134.80;1617913;87;26108;-85
2021/10/05 03:43:39;;;;;;;;;;;;;;;15.03;73.96;98136.55;1595153;87;20183;-85
2021/10/05 03:46:06;;;;;;;;;;;;;;;14.91;73.97;98134.55;1627685;87;20273;-88
2021/10/05 03:48:32;;;;;;;;;;;;;;;14.85;73.99;98131.64;1623753;87;25526;-84
2021/10/05 03:50:58;;;;;;;;;;;;;;;14.75;73.98;98136.09;1624915;87;22054;-86
2021/10/05 03:53:24;;;;;;;;;;;;;;;14.55;74.00;98123.44;1661745;85;21003;-83
2021/10/05 03:55:52;;;;;;;;;;;;;;;14.45;74.02;98123.94;1625516;87;20494;-86
2021/10/05 03:58:19;;;;;;;;;;;;;;;14.37;74.09;98125.09;1619293;87;20681;-84
2021/10/05 04:00:46;;;;;;;;;;;;;;;14.34;74.19;98130.14;1620720;87;24843;-84
2021/10/05 04:03:12;;;;;;;;;;;;;;;14.36;74.29;98124.23;1631499;86;22089;-86
2021/10/05 04:05:43;;;;;;;;;;;;;;;14.38;74.40;98125.45;1624513;87;26067;-86
2021/10/05 04:08:15;;;;;;;;;;;;;;;14.31;74.49;98116.40;1626925;86;23968;-87
2021/10/05 04:10:41;;;;;;;;;;;;;;;14.27;74.59;98122.44;1626213;87;20363;-87
2021/10/05 04:13:07;;;;;;;;;;;;;;;14.24;74.68;98119.58;1624344;87;20488;-84
2021/10/05 04:15:33;;;;;;;;;;;;;;;14.22;74.77;98120.22;1627319;87;20219;-88
2021/10/05 04:17:59;;;;;;;;;;;;;;;14.17;74.85;98122.92;1629658;87;26121;-88
2021/10/05 04:20:25;;;;;;;;;;;;;;;14.23;74.92;98128.47;1628691;87;24692;-86
2021/10/05 04:22:57;;;;;;;;;;;;;;;14.26;75.03;98128.66;1622668;87;20175;-83
2021/10/05 04:25:23;;;;;;;;;;;;;;;14.28;75.15;98135.12;1618999;87;24810;-84
2021/10/05 04:27:49;;;;;;;;;;;;;;;14.24;75.18;98126.16;1626355;86;20222;-86
2021/10/05 04:30:15;;;;;;;;;;;;;;;14.23;75.23;98128.95;1630272;87;21121;-87
2021/10/05 04:32:41;;;;;;;;;;;;;;;14.27;75.28;98126.87;1631648;86;25199;-87
2021/10/05 04:35:07;;;;;;;;;;;;;;;14.26;75.33;98123.40;1634823;86;20231;-87
2021/10/05 04:37:33;;;;;;;;;;;;;;;14.26;75.39;98126.03;1634387;87;24709;-86
2021/10/05 04:40:00;;;;;;;;;;;;;;;14.22;75.43;98123.34;1634953;87;20248;-87
2021/10/05 04:42:26;;;;;;;;;;;;;;;14.14;75.46;98120.55;1635666;85;26079;-86
2021/10/05 04:44:52;;;;;;;;;;;;;;;14.09;75.47;98123.59;1634374;87;20269;-87
2021/10/05 04:47:20;;;;;;;;;;;;;;;14.07;75.53;98128.14;1631001;87;20184;-86
2021/10/05 04:49:46;;;;;;;;;;;;;;;14.05;75.54;98134.53;1640211;87;25448;-87
2021/10/05 04:52:12;;;;;;;;;;;;;;;13.99;75.60;98125.37;1640977;87;20817;-88
2021/10/05 04:54:38;;;;;;;;;;;;;;;13.97;75.63;98122.52;1633936;87;21170;-87
2021/10/05 04:57:04;;;;;;;;;;;;;;;13.91;75.66;98120.46;1632240;87;20321;-86
2021/10/05 04:59:32;;;;;;;;;;;;;;;13.80;75.70;98125.35;1635720;87;20186;-83
2021/10/05 05:01:58;;;;;;;;;;;;;;;13.75;75.75;98123.10;1634218;87;24918;-84
2021/10/05 05:04:24;;;;;;;;;;;;;;;13.81;75.83;98127.83;1636024;86;22643;-87
2021/10/05 05:06:50;;;;;;;;;;;;;;;13.81;75.91;98126.52;1633255;87;20919;-88
2021/10/05 05:09:16;;;;;;;;;;;;;;;13.88;76.00;98122.03;1632666;87;20249;-86
2021/10/05 05:11:42;;;;;;;;;;;;;;;13.95;76.08;98116.59;1632332;87;20186;-82
2021/10/05 05:14:10;;;;;;;;;;;;;;;13.95;76.12;98126.63;1632411;85;25537;-83
2021/10/05 05:16:36;;;;;;;;;;;;;;;13.89;76.13;98115.80;1628894;87;22196;-88
2021/10/05 05:19:02;;;;;;;;;;;;;;;13.78;76.16;98112.81;1634678;87;26741;-86
2021/10/05 05:21:29;;;;;;;;;;;;;;;13.83;76.22;98114.07;1622803;87;25246;-82
2021/10/05 05:23:58;;;;;;;;;;;;;;;13.86;76.28;98103.73;1633837;87;20485;-87
2021/10/05 05:26:24;;;;;;;;;;;;;;;13.86;76.34;98095.02;1626287;87;24977;-86
2021/10/05 05:28:50;;;;;;;;;;;;;;;13.82;76.40;98093.98;1634388;87;21986;-84
2021/10/05 05:31:16;;;;;;;;;;;;;;;13.88;76.46;98094.41;1635384;87;21716;-86
2021/10/05 05:33:42;;;;;;;;;;;;;;;13.95;76.55;98095.05;1637863;85;23938;-84
2021/10/05 05:36:08;;;;;;;;;;;;;;;14.07;76.67;98097.08;1625866;87;20306;-84
2021/10/05 05:38:35;;;;;;;;;;;;;;;14.18;76.79;98092.49;1620941;87;25488;-84
2021/10/05 05:41:01;;;;;;;;;;;;;;;14.28;76.92;98093.84;1629293;87;22160;-87
2021/10/05 05:43:27;;;;;;;;;;;;;;;14.41;77.04;98085.67;1628297;87;21144;-87
2021/10/05 05:45:53;;;;;;;;;;;;;;;14.50;77.14;98080.91;1622098;87;24889;-86
2021/10/05 05:48:22;;;;;;;;;;;;;;;14.64;77.27;98078.66;1620498;87;20319;-86
2021/10/05 05:50:48;;;;;;;;;;;;;;;14.80;77.36;98084.66;1626596;87;25044;-86
2021/10/05 05:53:14;;;;;;;;;;;;;;;14.93;77.45;98078.60;1626785;87;21983;-86
2021/10/05 05:55:40;;;;;;;;;;;;;;;15.01;77.54;98076.06;1619053;87;26092;-87
2021/10/05 05:58:09;;;;;;;;;;;;;;;15.12;77.60;98084.28;1624033;87;20270;-88
2021/10/05 06:00:36;;;;;;;;;;;;;;;15.22;77.65;98082.95;1623694;87;20350;-86
2021/10/05 06:03:02;;;;;;;;;;;;;;;15.31;77.68;98088.66;1632148;86;24875;-84
2021/10/05 06:05:27;;;;;;;;;;;;;;;15.41;77.72;98083.69;1618367;87;20311;-84
2021/10/05 06:07:53;;;;;;;;;;;;;;;15.54;77.74;98085.20;1620199;87;21829;-84
2021/10/05 06:10:19;;;;;;;;;;;;;;;15.62;77.76;98091.88;1627733;87;20309;-83
2021/10/05 06:12:45;;;;;;;;;;;;;;;15.69;77.76;98081.92;1630565;87;21149;-87
2021/10/05 06:15:13;;;;;;;;;;;;;;;15.80;77.72;98076.44;1618251;87;20479;-86
2021/10/05 06:17:39;;;;;;;;;;;;;;;15.91;77.70;98080.67;1629570;87;22769;-86
2021/10/05 06:20:07;;;;;;;;;;;;;;;16.00;77.65;98076.30;1623921;86;26861;-84
2021/10/05 06:22:33;;;;;;;;;;;;;;;16.06;77.59;98075.70;1625296;87;24544;-88
2021/10/05 06:24:59;;;;;;;;;;;;;;;16.14;77.54;98073.98;1656541;85;21040;-84
2021/10/05 06:27:25;;;;;;;;;;;;;;;16.20;77.44;98069.39;1622993;87;20246;-88
2021/10/05 06:29:51;;;;;;;;;;;;;;;16.26;77.37;98070.11;1615989;87;21973;-88
2021/10/05 06:32:17;;;;;;;;;;;;;;;16.32;77.32;98063.39;1631303;87;21049;-84
2021/10/05 06:34:43;;;;;;;;;;;;;;;16.47;77.17;98055.29;1630721;86;20259;-83
2021/10/05 06:37:09;;;;;;;;;;;;;;;16.60;77.02;98049.13;1620175;87;20360;-84
2021/10/05 06:39:35;;;;;;;;;;;;;;;16.75;76.88;98050.70;1624263;87;20363;-86
2021/10/05 06:42:01;;;;;;;;;;;;;;;16.87;76.72;98050.80;1627831;87;21984;-84
2021/10/05 06:44:27;;;;;;;;;;;;;;;16.92;76.58;98049.00;1627558;87;26169;-84
2021/10/05 06:46:53;;;;;;;;;;;;;;;16.98;76.43;98055.81;1623448;87;20296;-84
2021/10/05 06:49:19;;;;;;;;;;;;;;;17.07;76.24;98059.36;1631866;87;20258;-86
2021/10/05 06:51:48;;;;;;;;;;;;;;;17.12;76.07;98056.58;1620910;87;24595;-84
2021/10/05 06:54:14;;;;;;;;;;;;;;;17.20;75.93;98068.16;1614893;87;22074;-83
2021/10/05 06:56:40;;;;;;;;;;;;;;;17.24;75.79;98060.27;1654299;85;25990;-84
2021/10/05 06:59:06;;;;;;;;;;;;;;;17.32;75.62;98059.80;1629431;86;20219;-88
2021/10/05 07:01:32;;;;;;;;;;;;;;;17.44;75.39;98063.83;1633198;87;20824;-84
2021/10/05 07:03:59;;;;;;;;;;;;;;;17.54;75.20;98065.02;1623317;87;24765;-84
2021/10/05 07:06:25;;;;;;;;;;;;;;;17.63;74.96;98062.76;1629875;87;22089;-84
2021/10/05 07:08:51;;;;;;;;;;;;;;;17.71;74.75;98063.29;1623279;87;26026;-84
2021/10/05 07:11:17;;;;;;;;;;;;;;;17.75;74.58;98061.48;1623418;87;20331;-84
2021/10/05 07:13:43;;;;;;;;;;;;;;;17.82;74.38;98065.15;1624159;87;20293;-86
2021/10/05 07:16:10;;;;;;;;;;;;;;;17.87;74.22;98057.55;1629089;87;24829;-86
2021/10/05 07:18:36;;;;;;;;;;;;;;;17.90;74.06;98050.59;1629499;87;22881;-86
2021/10/05 07:21:04;;;;;;;;;;;;;;;17.97;73.84;98051.61;1626675;87;21043;-86
2021/10/05 07:23:30;;;;;;;;;;;;;;;18.07;73.59;98059.39;1625806;87;24641;-87
2021/10/05 07:25:56;;;;;;;;;;;;;;;18.12;73.36;98059.73;1628744;87;20230;-83
2021/10/05 07:28:22;;;;;;;;;;;;;;;18.23;73.00;98062.55;1620063;87;24844;-83
2021/10/05 07:30:48;;;;;;;;;;;;;;;18.31;72.80;98062.08;1630063;87;21937;-86
2021/10/05 07:33:15;;;;;;;;;;;;;;;18.36;72.57;98065.06;1621977;87;20709;-88
2021/10/05 07:35:43;;;;;;;;;;;;;;;18.43;72.33;98059.94;1620816;87;24584;-84
2021/10/05 07:38:09;;;;;;;;;;;;;;;18.52;72.02;98056.28;1624426;87;20283;-84
2021/10/05 07:40:35;;;;;;;;;;;;;;;18.61;71.72;98058.45;1632445;87;20204;-88
2021/10/05 07:43:01;;;;;;;;;;;;;;;18.69;71.46;98057.13;1620037;87;21988;-83
2021/10/05 07:45:34;;;;;;;;;;;;;;;18.74;71.23;98051.66;1626491;87;25854;-84
2021/10/05 07:48:02;;;;;;;;;;;;;;;18.80;71.00;98056.30;1625942;87;37726;-86
2021/10/05 07:50:30;;;;;;;;;;;;;;;18.85;70.66;98046.51;1635689;87;20256;-88
2021/10/05 07:52:56;;;;;;;;;;;;;;;18.93;70.47;98048.33;1619457;87;24837;-88
2021/10/05 07:55:22;;;;;;;;;;;;;;;18.97;70.25;98049.64;1618127;87;22066;-84
2021/10/05 07:57:48;;;;;;;;;;;;;;;19.05;70.00;98044.30;1621079;87;27044;-86
2021/10/05 08:00:14;;;;;;;;;;;;;;;19.09;69.79;98048.29;1631427;87;20848;-86
2021/10/05 08:02:40;;;;;;;;;;;;;;;19.15;69.63;98040.95;1624867;87;20195;-88
2021/10/05 08:05:07;;;;;;;;;;;;;;;19.20;69.46;98044.75;1622798;87;20757;-84
2021/10/05 08:07:34;;;;;;;;;;;;;;;19.27;69.24;98038.76;1621605;87;22192;-88
2021/10/05 08:10:00;;;;;;;;;;;;;;;19.33;69.00;98032.77;1629410;86;26191;-84
2021/10/05 08:12:26;;;;;;;;;;;;;;;19.40;68.71;98022.63;1621494;87;20239;-86
2021/10/05 08:14:52;;;;;;;;;;;;;;;19.46;68.43;98023.30;1627987;87;20257;-86
2021/10/05 08:17:19;;;;;;;;;;;;;;;19.54;68.17;98016.61;1605877;87;24584;-83
2021/10/05 08:19:47;;;;;;;;;;;;;;;19.60;67.85;98007.95;1623861;87;22079;-83
2021/10/05 08:22:13;;;;;;;;;;;;;;;19.66;67.51;98010.42;1620486;87;26191;-83
2021/10/05 08:24:39;;;;;;;;;;;;;;;19.72;67.28;98012.37;1624932;87;24448;-83
2021/10/05 08:27:05;;;;;;;;;;;;;;;19.77;67.08;98013.17;1623887;87;20346;-87
2021/10/05 08:29:32;;;;;;;;;;;;;;;19.85;66.80;98009.98;1627298;87;24834;-83
2021/10/05 08:31:59;;;;;;;;;;;;;;;19.94;66.53;98005.44;1621768;87;22495;-86
2021/10/05 08:34:25;;;;;;;;;;;;;;;19.99;66.17;97995.93;1598369;85;25858;-84
2021/10/05 08:36:57;;;;;;;;;;;;;;;20.01;65.93;97982.48;1622659;87;24408;-86
2021/10/05 08:39:23;;;;;;;;;;;;;;;20.05;65.63;97982.45;1628523;87;20356;-83
2021/10/05 08:41:49;;;;;;;;;;;;;;;20.09;65.38;97986.89;1625942;87;20206;-87
2021/10/05 08:44:15;;;;;;;;;;;;;;;20.13;65.00;97978.91;1626651;87;22739;-88
2021/10/05 08:46:42;;;;;;;;;;;;;;;20.19;64.65;97971.03;1625046;87;27882;-88
2021/10/05 08:49:10;;;;;;;;;;;;;;;20.24;64.38;97975.30;1630685;87;24417;-84
2021/10/05 08:51:37;;;;;;;;;;;;;;;20.28;64.06;97967.31;1627798;87;20219;-83
2021/10/05 08:54:04;;;;;;;;;;;;;;;20.32;63.76;97968.63;1633526;87;24785;-87
2021/10/05 08:56:31;;;;;;;;;;;;;;;20.40;63.51;97974.39;1616645;87;22094;-86
2021/10/05 08:59:00;;;;;;;;;;;;;;;20.44;63.11;97973.02;1617148;87;26011;-88
2021/10/05 09:01:27;;;;;;;;;;;;;;;20.50;62.80;97966.15;1631269;87;24466;-88
2021/10/05 09:03:54;;;;;;;;;;;;;;;20.55;62.46;97965.93;1628283;87;20196;-88
2021/10/05 09:06:21;;;;;;;;;;;;;;;20.58;62.26;97976.69;1620527;87;24810;-88
2021/10/05 09:08:48;;;;;;;;;;;;;;;20.62;61.94;97978.80;1627680;87;22279;-83
2021/10/05 09:11:15;;;;;;;;;;;;;;;20.69;61.68;97964.28;1623410;87;26280;-86
2021/10/05 09:13:43;;;;;;;;;;;;;;;20.75;61.29;97965.71;1626517;87;24675;-87
2021/10/05 09:16:16;;;;;;;;;;;;;;;20.82;60.98;97960.49;1624624;87;20366;-87
2021/10/05 09:18:56;;;;;;;;;;;;;;;20.84;60.71;97961.12;1623980;87;24714;-88
2021/10/05 09:21:23;;;;;;;;;;;;;;;20.92;60.40;97965.53;1616169;87;22849;-88
2021/10/05 09:23:57;;;;;;;;;;;;;;;20.99;60.14;97955.31;1627114;87;26224;-84
2021/10/05 09:26:33;;;;;;;;;;;;;;;21.04;59.77;97967.55;1642383;86;24522;-88
2021/10/05 09:29:01;;;;;;;;;;;;;;;21.09;59.58;97959.84;1624228;87;20220;-84
2021/10/05 09:31:27;;;;;;;;;;;;;;;21.12;59.38;97942.16;1635433;86;24908;-83
2021/10/05 09:33:53;;;;;;;;;;;;;;;21.14;59.06;97945.98;1627490;87;20242;-86
2021/10/05 09:36:26;;;;;;;;;;;;;;;21.19;58.87;97943.61;1621879;87;21087;-88
2021/10/05 09:38:56;;;;;;;;;;;;;;;21.24;58.62;97935.89;1623730;87;24578;-84
2021/10/05 09:41:22;;;;;;;;;;;;;;;21.30;58.37;97941.80;1630070;86;20885;-87
2021/10/05 09:43:50;;;;;;;;;;;;;;;21.37;58.16;97941.39;1620840;87;20258;-86
2021/10/05 09:46:20;;;;;;;;;;;;;;;21.44;57.87;97943.59;1621813;86;22733;-84
2021/10/05 09:48:46;;;;;;;;;;;;;;;21.48;57.67;97944.89;1624482;87;26240;-83
2021/10/05 09:51:25;;;;;;;;;;;;;;;21.52;57.46;97937.34;1627881;87;20373;-87
2021/10/05 09:53:51;;;;;;;;;;;;;;;21.54;57.38;97956.13;1624062;87;20237;-88
2021/10/05 09:56:19;;;;;;;;;;;;;;;21.61;57.26;97949.52;1621920;87;24781;-83
2021/10/05 09:58:45;;;;;;;;;;;;;;;21.66;57.08;97955.10;1628820;87;22224;-86
2021/10/05 10:01:11;;;;;;;;;;;;;;;21.72;56.85;97950.36;1626097;87;26865;-87
2021/10/05 10:03:37;;;;;;;;;;;;;;;21.78;56.68;97938.13;1605617;87;20832;-87
2021/10/05 10:06:03;;;;;;;;;;;;;;;21.84;56.44;97953.34;1619957;86;20247;-86
2021/10/05 10:08:31;;;;;;;;;;;;;;;21.88;56.14;97934.13;1619474;87;24755;-87
2021/10/05 10:10:58;;;;;;;;;;;;;;;21.90;56.00;97936.10;1626657;86;22103;-84
2021/10/05 10:13:24;;;;;;;;;;;;;;;21.96;55.87;97935.87;1621258;87;25958;-89
2021/10/05 10:15:50;;;;;;;;;;;;;;;22.01;55.72;97943.62;1626160;87;24532;-87
2021/10/05 10:18:22;;;;;;;;;;;;;;;22.07;55.55;97945.52;1626440;87;20309;-87
2021/10/05 10:20:54;;;;;;;;;;;;;;;22.14;55.44;97934.09;1626617;87;25413;-85
2021/10/05 10:23:21;;;;;;;;;;;;;;;22.15;55.26;97934.42;1624402;87;22525;-88
2021/10/05 10:25:55;;;;;;;;;;;;;;;22.19;55.02;97935.67;1623878;87;25994;-88
2021/10/05 10:28:38;;;;;;;;;;;;;;;22.24;54.73;97930.59;1621228;87;25102;-86
2021/10/05 10:31:08;;;;;;;;;;;;;;;22.30;54.58;97927.16;1619951;87;20171;-88
2021/10/05 10:33:47;;;;;;;;;;;;;;;22.37;54.32;97919.50;1629393;86;25134;-86
2021/10/05 10:36:14;;;;;;;;;;;;;;;22.41;54.11;97913.29;1624463;86;22030;-86
2021/10/05 10:38:45;;;;;;;;;;;;;;;22.45;53.92;97898.54;1627680;87;26044;-83
2021/10/05 10:41:16;;;;;;;;;;;;;;;22.49;53.79;97904.61;1617920;87;24670;-83
2021/10/05 10:43:43;;;;;;;;;;;;;;;22.56;53.65;97905.17;1625752;87;20402;-87
2021/10/05 10:46:09;;;;;;;;;;;;;;;22.59;53.52;97908.26;1618585;87;24840;-87
2021/10/05 10:48:36;;;;;;;;;;;;;;;22.60;53.33;97912.58;1626448;87;20330;-88
2021/10/05 10:51:13;;;;;;;;;;;;;;;22.64;53.09;97910.37;1620210;87;26009;-84
2021/10/05 10:53:40;;;;;;;;;;;;;;;22.71;52.92;97909.88;1621201;87;24459;-83
2021/10/05 10:56:06;;;;;;;;;;;;;;;22.74;52.74;97893.52;1620970;87;20215;-88
2021/10/05 10:58:34;;;;;;;;;;;;;;;22.75;52.65;97893.30;1628492;87;24650;-89
2021/10/05 11:01:00;;;;;;;;;;;;;;;22.78;52.50;97894.27;1617432;87;21998;-89
2021/10/05 11:03:28;;;;;;;;;;;;;;;22.85;52.36;97896.97;1620937;87;26173;-84
2021/10/05 11:05:54;;;;;;;;;;;;;;;22.83;52.09;97883.81;1622708;86;24541;-83
2021/10/05 11:08:20;;;;;;;;;;;;;;;22.91;51.76;97898.84;1633857;87;20320;-83
2021/10/05 11:10:46;;;;;;;;;;;;;;;22.97;51.36;97892.69;1627746;87;20310;-83
2021/10/05 11:13:12;;;;;;;;;;;;;;;23.05;50.92;97878.36;1619302;87;22859;-82
2021/10/05 11:15:39;;;;;;;;;;;;;;;23.13;50.72;97885.67;1621193;87;21052;-83
2021/10/05 11:18:07;;;;;;;;;;;;;;;23.15;50.40;97873.47;1626123;87;25274;-86
2021/10/05 11:20:37;;;;;;;;;;;;;;;23.21;50.16;97892.19;1621275;87;20270;-88
2021/10/05 11:23:04;;;;;;;;;;;;;;;23.19;49.91;97871.53;1628427;87;24610;-88
2021/10/05 11:25:30;;;;;;;;;;;;;;;23.23;49.48;97864.78;1625238;87;22033;-85
2021/10/05 11:27:58;;;;;;;;;;;;;;;23.28;49.41;97878.86;1629128;86;26108;-84
2021/10/05 11:30:26;;;;;;;;;;;;;;;23.28;49.24;97870.34;1621046;87;25548;-84
2021/10/05 11:32:52;;;;;;;;;;;;;;;23.28;48.92;97841.48;1625953;87;20337;-85
2021/10/05 11:35:18;;;;;;;;;;;;;;;23.27;48.65;97846.50;1632236;85;20254;-85
2021/10/05 11:37:45;;;;;;;;;;;;;;;23.30;48.36;97852.77;1621806;87;22618;-84
2021/10/05 11:40:11;;;;;;;;;;;;;;;23.36;48.12;97848.78;1625221;87;26165;-87
2021/10/05 11:42:37;;;;;;;;;;;;;;;23.38;48.13;97855.77;1628294;87;24504;-88
2021/10/05 11:45:05;;;;;;;;;;;;;;;23.40;48.01;97865.24;1621326;87;20200;-89
2021/10/05 11:47:31;;;;;;;;;;;;;;;23.39;47.75;97854.75;1628414;87;24770;-84
2021/10/05 11:50:03;;;;;;;;;;;;;;;23.44;47.12;97863.80;1620264;87;22104;-87
2021/10/05 11:52:30;;;;;;;;;;;;;;;23.49;46.80;97849.36;1626750;87;27082;-87
2021/10/05 11:54:57;;;;;;;;;;;;;;;23.49;46.72;97840.52;1628704;87;25274;-87
2021/10/05 11:57:29;;;;;;;;;;;;;;;23.51;46.51;97848.62;1625461;87;20263;-89
2021/10/05 12:00:00;;;;;;;;;;;;;;;23.54;46.45;97850.91;1624051;87;24790;-84
2021/10/05 12:02:26;;;;;;;;;;;;;;;23.54;46.19;97848.74;1612886;87;22145;-87
2021/10/05 12:04:53;;;;;;;;;;;;;;;23.56;45.96;97842.19;1620939;87;21651;-84
2021/10/05 12:07:22;;;;;;;;;;;;;;;23.58;45.65;97848.12;1627584;87;24382;-89
2021/10/05 12:09:52;;;;;;;;;;;;;;;23.60;45.41;97839.92;1630039;87;20282;-84
2021/10/05 12:12:18;;;;;;;;;;;;;;;23.61;45.29;97845.06;1625172;87;25588;-87
2021/10/05 12:14:46;;;;;;;;;;;;;;;23.61;45.18;97850.92;1628198;87;22058;-87
2021/10/05 12:17:14;;;;;;;;;;;;;;;23.59;44.90;97832.42;1631482;86;26789;-83
2021/10/05 12:19:45;;;;;;;;;;;;;;;23.62;44.89;97840.55;1619511;87;24374;-83
2021/10/05 12:22:11;;;;;;;;;;;;;;;23.61;44.90;97834.89;1621557;87;20207;-88
2021/10/05 12:24:48;;;;;;;;;;;;;;;23.59;44.75;97831.08;1619547;87;25005;-88
2021/10/05 12:27:18;;;;;;;;;;;;;;;23.58;44.59;97838.78;1633794;87;22067;-86
2021/10/05 12:29:48;;;;;;;;;;;;;;;23.57;44.30;97837.64;1630552;86;25966;-87
2021/10/05 12:32:14;;;;;;;;;;;;;;;23.55;44.25;97836.53;1631952;87;25379;-85
2021/10/05 12:34:40;;;;;;;;;;;;;;;23.59;44.09;97836.94;1623185;87;20255;-89
2021/10/05 12:37:08;;;;;;;;;;;;;;;23.59;44.02;97833.75;1634687;87;24758;-89
2021/10/05 12:39:35;;;;;;;;;;;;;;;23.63;44.06;97828.81;1633880;87;22038;-84
2021/10/05 12:42:02;;;;;;;;;;;;;;;23.66;43.95;97833.25;1634330;87;26056;-84
2021/10/05 12:44:30;;;;;;;;;;;;;;;23.67;43.87;97832.74;1638488;87;23917;-85
2021/10/05 12:46:58;;;;;;;;;;;;;;;23.69;43.81;97833.34;1635668;87;20225;-84